createdAt,value
2022-12-20T00:01:27.845Z,86.10
2022-12-20T00:03:56.216Z,89.25
2022-12-20T00:06:24.907Z,88.13
2022-12-20T00:09:00.294Z,79.93
2022-12-20T00:13:55.454Z,79.72
2022-12-20T00:16:25.715Z,88.00
2022-12-20T00:18:55.220Z,81.82
2022-12-20T00:21:23.219Z,85.72
2022-12-20T00:23:52.317Z,87.57
2022-12-20T00:26:24.554Z,84.07
2022-12-20T00:28:53.892Z,91.75
2022-12-20T00:31:23.425Z,84.00
2022-12-20T00:33:53.282Z,82.43
2022-12-20T00:36:22.278Z,85.43
2022-12-20T00:38:50.783Z,89.47
2022-12-20T00:41:23.036Z,91.97
2022-12-20T00:43:51.226Z,91.40
2022-12-20T00:46:23.440Z,88.07
2022-12-20T00:48:51.282Z,92.15
2022-12-20T00:51:21.699Z,93.53
2022-12-20T00:53:48.798Z,88.03
2022-12-20T00:56:19.009Z,85.90
2022-12-20T00:58:46.473Z,94.60
2022-12-20T01:01:23.623Z,88.10
2022-12-20T01:03:52.546Z,101.00
2022-12-20T01:06:23.638Z,86.75
2022-12-20T01:08:51.809Z,99.18
2022-12-20T01:11:24.368Z,94.18
2022-12-20T01:13:54.874Z,86.63
2022-12-20T01:16:28.781Z,93.40
2022-12-20T01:18:56.830Z,93.22
2022-12-20T01:21:27.089Z,84.60
2022-12-20T01:23:54.919Z,88.80
2022-12-20T01:26:24.701Z,79.30
2022-12-20T01:28:57.708Z,84.88
2022-12-20T01:31:28.300Z,83.50
2022-12-20T01:33:56.038Z,82.97
2022-12-20T01:36:26.354Z,84.47
2022-12-20T01:39:01.800Z,80.55
2022-12-20T01:41:31.246Z,83.25
2022-12-20T01:44:24.980Z,77.57
2022-12-20T01:46:54.870Z,88.57
2022-12-20T01:49:34.973Z,86.50
2022-12-20T01:52:33.094Z,98.25
2022-12-20T01:55:08.599Z,103.43
2022-12-20T02:00:16.714Z,100.03
2022-12-20T02:02:47.887Z,93.93
2022-12-20T02:05:17.353Z,86.95
2022-12-20T02:07:50.366Z,85.28
2022-12-20T02:10:21.083Z,99.72
2022-12-20T02:12:48.791Z,89.43
2022-12-20T02:15:41.298Z,93.13
2022-12-20T02:18:27.949Z,88.85
2022-12-20T02:23:46.214Z,92.88
2022-12-20T02:26:22.166Z,90.10
2022-12-20T02:28:49.637Z,93.13
2022-12-20T02:31:21.136Z,91.35
2022-12-20T02:33:49.673Z,86.93
2022-12-20T02:36:18.404Z,83.75
2022-12-20T02:38:47.612Z,88.85
2022-12-20T02:41:55.285Z,83.38
2022-12-20T02:44:45.563Z,73.60
2022-12-20T02:47:21.682Z,75.18
2022-12-20T02:49:51.475Z,82.38
2022-12-20T02:52:22.701Z,69.40
2022-12-20T02:54:50.080Z,79.40
2022-12-20T02:57:30.788Z,74.38
2022-12-20T03:00:05.741Z,76.43
2022-12-20T03:02:55.009Z,74.65
2022-12-20T03:05:26.125Z,76.85
2022-12-20T03:07:55.184Z,70.25
2022-12-20T03:10:25.717Z,67.90
2022-12-20T03:12:52.865Z,71.45
2022-12-20T03:15:21.005Z,71.72
2022-12-20T03:17:51.718Z,68.00
2022-12-20T03:20:19.188Z,69.43
2022-12-20T03:22:46.544Z,74.63
2022-12-20T03:25:16.787Z,68.20
2022-12-20T03:27:46.269Z,65.65
2022-12-20T03:30:14.480Z,71.53
2022-12-20T03:32:41.796Z,67.93
2022-12-20T03:35:09.488Z,77.13
2022-12-20T03:37:42.792Z,68.95
2022-12-20T03:40:14.180Z,73.55
2022-12-20T03:42:41.252Z,73.22
2022-12-20T03:45:09.074Z,69.10
2022-12-20T03:47:36.046Z,67.15
2022-12-20T03:50:05.252Z,72.43
2022-12-20T03:52:35.047Z,72.38
2022-12-20T03:55:03.723Z,63.53
2022-12-20T03:57:37.853Z,60.50
2022-12-20T04:00:13.563Z,68.43
2022-12-20T04:02:47.346Z,66.20
2022-12-20T04:05:16.766Z,59.00
2022-12-20T04:07:45.427Z,61.70
2022-12-20T04:10:13.510Z,58.08
2022-12-20T04:12:43.461Z,62.17
2022-12-20T04:15:12.542Z,62.25
2022-12-20T04:17:41.724Z,61.00
2022-12-20T04:20:20.384Z,66.43
2022-12-20T04:25:33.551Z,61.95
2022-12-20T04:28:00.539Z,63.97
2022-12-20T04:30:30.574Z,70.07
2022-12-20T04:33:01.305Z,62.05
2022-12-20T04:35:28.716Z,61.60
2022-12-20T04:37:59.076Z,66.32
2022-12-20T04:40:26.351Z,63.95
2022-12-20T04:42:56.525Z,57.75
2022-12-20T04:45:23.874Z,64.80
2022-12-20T04:47:52.648Z,71.35
2022-12-20T04:50:30.908Z,66.03
2022-12-20T04:53:18.422Z,66.05
2022-12-20T04:55:49.565Z,60.45
2022-12-20T04:58:16.710Z,63.88
2022-12-20T05:00:44.749Z,59.80
2022-12-20T05:03:26.201Z,66.93
2022-12-20T05:05:54.341Z,64.53
2022-12-20T05:08:23.581Z,65.72
2022-12-20T05:10:52.921Z,65.70
2022-12-20T05:13:19.974Z,68.63
2022-12-20T05:15:53.249Z,69.43
2022-12-20T05:18:25.886Z,72.25
2022-12-20T05:21:20.669Z,64.43
2022-12-20T05:24:09.120Z,65.00
2022-12-20T05:27:05.851Z,72.00
2022-12-20T05:29:32.865Z,74.45
2022-12-20T05:32:00.161Z,70.63
2022-12-20T05:34:27.799Z,66.70
2022-12-20T05:36:56.455Z,68.82
2022-12-20T05:39:27.288Z,67.82
2022-12-20T05:41:58.860Z,73.45
2022-12-20T05:44:27.552Z,72.93
2022-12-20T05:46:57.988Z,62.90
2022-12-20T05:49:29.335Z,73.20
2022-12-20T05:51:59.542Z,75.43
2022-12-20T05:54:27.299Z,72.95
2022-12-20T05:57:08.582Z,81.13
2022-12-20T05:59:38.590Z,73.55
2022-12-20T06:02:10.770Z,76.15
2022-12-20T06:04:38.765Z,67.25
2022-12-20T06:07:16.837Z,68.93
2022-12-20T06:09:47.159Z,72.25
2022-12-20T06:12:19.743Z,79.43
2022-12-20T06:14:47.720Z,76.85
2022-12-20T06:17:15.166Z,70.00
2022-12-20T06:19:43.203Z,70.75
2022-12-20T06:22:13.660Z,68.63
2022-12-20T06:24:48.238Z,84.10
2022-12-20T06:27:16.831Z,76.78
2022-12-20T06:29:51.820Z,69.85
2022-12-20T06:32:24.884Z,71.07
2022-12-20T06:34:52.946Z,75.63
2022-12-20T06:37:20.415Z,71.88
2022-12-20T06:39:47.432Z,74.97
2022-12-20T06:42:15.537Z,67.93
2022-12-20T06:44:45.112Z,77.05
2022-12-20T06:47:12.561Z,72.55
2022-12-20T06:49:39.712Z,69.25
2022-12-20T06:52:13.133Z,72.55
2022-12-20T06:54:45.621Z,77.85
2022-12-20T06:57:14.425Z,71.43
2022-12-20T06:59:43.797Z,73.85
2022-12-20T07:02:14.969Z,74.38
2022-12-20T07:04:44.597Z,84.50
2022-12-20T07:07:13.598Z,72.53
2022-12-20T07:09:41.836Z,75.60
2022-12-20T07:12:12.073Z,66.93
2022-12-20T07:14:41.498Z,79.75
2022-12-20T07:17:09.147Z,75.35
2022-12-20T07:19:36.911Z,72.03
2022-12-20T07:22:05.679Z,75.95
2022-12-20T07:24:34.307Z,77.63
2022-12-20T07:27:02.104Z,76.28
2022-12-20T07:29:29.331Z,74.95
2022-12-20T07:31:56.926Z,85.95
2022-12-20T07:34:24.184Z,75.53
2022-12-20T07:36:53.858Z,81.40
2022-12-20T07:39:21.164Z,86.93
2022-12-20T07:41:48.775Z,79.38
2022-12-20T07:44:18.020Z,79.40
2022-12-20T07:46:47.816Z,85.00
2022-12-20T07:49:17.128Z,76.40
2022-12-20T07:51:49.717Z,84.82
2022-12-20T07:54:21.654Z,81.90
2022-12-20T07:56:52.949Z,85.22
2022-12-20T07:59:27.333Z,82.97
2022-12-20T08:02:02.364Z,89.75
2022-12-20T08:04:32.380Z,84.00
2022-12-20T08:07:01.750Z,77.82
2022-12-20T08:09:34.599Z,80.13
2022-12-20T08:12:02.412Z,88.18
2022-12-20T08:14:29.738Z,88.95
2022-12-20T08:16:57.218Z,93.88
2022-12-20T08:19:30.031Z,77.35
2022-12-20T08:21:59.563Z,86.13
2022-12-20T08:24:31.225Z,85.22
2022-12-20T08:26:59.564Z,87.75
2022-12-20T08:29:26.725Z,88.45
2022-12-20T08:31:54.498Z,89.80
2022-12-20T08:34:21.533Z,86.40
2022-12-20T08:36:48.995Z,98.50
2022-12-20T08:39:16.034Z,86.70
2022-12-20T08:41:43.495Z,86.60
2022-12-20T08:44:10.873Z,77.47
2022-12-20T08:46:38.306Z,84.13
2022-12-20T08:49:05.714Z,99.32
2022-12-20T08:51:33.610Z,89.53
2022-12-20T08:54:00.832Z,94.53
2022-12-20T08:56:28.368Z,90.07
2022-12-20T08:58:55.804Z,87.43
2022-12-20T09:01:23.691Z,81.60
2022-12-20T09:03:50.911Z,78.82
2022-12-20T09:06:21.266Z,83.60
2022-12-20T09:08:48.344Z,90.07
2022-12-20T09:11:16.939Z,83.68
2022-12-20T09:13:45.744Z,86.22
2022-12-20T09:16:15.508Z,90.25
2022-12-20T09:18:43.209Z,81.75
2022-12-20T09:21:11.603Z,84.05
2022-12-20T09:23:38.874Z,82.00
2022-12-20T09:26:10.632Z,88.57
2022-12-20T09:28:38.267Z,79.70
2022-12-20T09:31:07.904Z,78.18
2022-12-20T09:33:35.678Z,85.93
2022-12-20T09:36:04.369Z,87.43
2022-12-20T09:38:32.299Z,87.97
2022-12-20T09:41:05.442Z,99.45
2022-12-20T09:43:33.988Z,96.93
2022-12-20T09:46:03.412Z,90.95
2022-12-20T09:48:39.168Z,84.93
2022-12-20T09:51:15.761Z,88.00
2022-12-20T09:54:04.462Z,82.10
2022-12-20T09:56:37.460Z,94.63
2022-12-20T09:59:06.198Z,85.82
2022-12-20T10:01:39.502Z,95.82
2022-12-20T10:04:15.018Z,91.82
2022-12-20T10:07:19.924Z,97.50
2022-12-20T10:10:02.247Z,82.25
2022-12-20T10:12:38.455Z,101.32
2022-12-20T10:18:04.355Z,68.93
2022-12-20T10:20:55.492Z,102.28
2022-12-20T10:23:42.654Z,89.78
2022-12-20T10:26:12.323Z,84.28
2022-12-20T10:28:41.166Z,93.15
2022-12-20T10:31:13.775Z,100.18
2022-12-20T10:33:42.864Z,90.90
2022-12-20T10:36:32.461Z,92.72
2022-12-20T10:39:02.553Z,94.88
2022-12-20T10:41:48.990Z,94.97
2022-12-20T10:44:22.308Z,92.88
2022-12-20T10:47:00.975Z,101.45
2022-12-20T10:49:38.484Z,102.65
2022-12-20T10:52:08.547Z,107.93
2022-12-20T10:54:37.543Z,87.57
2022-12-20T10:57:29.938Z,92.90
2022-12-20T11:00:06.504Z,86.45
2022-12-20T11:02:42.965Z,95.18
2022-12-20T11:05:10.697Z,98.60
2022-12-20T11:08:24.647Z,86.68
2022-12-20T11:10:40.367Z,101.28
2022-12-20T11:13:20.982Z,101.55
2022-12-20T11:15:51.241Z,94.85
2022-12-20T11:18:43.072Z,97.75
2022-12-20T11:21:45.329Z,101.28
2022-12-20T11:24:12.338Z,82.25
2022-12-20T11:27:11.965Z,87.15
2022-12-20T11:29:45.110Z,94.80
2022-12-20T11:32:27.528Z,101.18
2022-12-20T11:35:19.703Z,107.00
2022-12-20T11:38:09.451Z,92.50
2022-12-20T11:40:49.255Z,92.30
2022-12-20T11:44:01.077Z,97.15
2022-12-20T11:46:49.911Z,87.75
2022-12-20T11:49:43.709Z,106.85
2022-12-20T11:52:19.260Z,96.88
2022-12-20T11:54:53.579Z,106.25
2022-12-20T11:57:27.927Z,93.85
2022-12-20T11:59:59.859Z,92.32
2022-12-20T12:02:54.701Z,102.07
2022-12-20T12:05:41.536Z,107.88
2022-12-20T12:08:20.578Z,106.32
2022-12-20T12:11:04.428Z,108.28
2022-12-20T12:13:36.383Z,108.53
2022-12-20T12:16:12.995Z,108.80
2022-12-20T12:18:42.265Z,115.35
2022-12-20T12:21:25.824Z,103.68
2022-12-20T12:24:16.888Z,107.50
2022-12-20T12:26:44.672Z,111.47
2022-12-20T12:29:15.187Z,114.03
2022-12-20T12:32:04.755Z,116.15
2022-12-20T12:34:37.980Z,111.97
2022-12-20T12:37:29.918Z,120.78
2022-12-20T12:40:19.238Z,110.38
2022-12-20T12:43:08.338Z,121.70
2022-12-20T12:45:44.165Z,118.38
2022-12-20T12:48:23.181Z,123.85
2022-12-20T12:50:54.215Z,115.47
2022-12-20T12:53:35.899Z,118.18
2022-12-20T12:56:43.659Z,117.18
2022-12-20T12:59:33.163Z,123.20
2022-12-20T13:02:06.439Z,130.30
2022-12-20T13:04:59.021Z,113.47
2022-12-20T13:07:32.131Z,121.75
2022-12-20T13:10:01.630Z,112.28
2022-12-20T13:12:38.066Z,129.93
2022-12-20T13:15:21.130Z,124.43
2022-12-20T13:18:04.704Z,129.93
2022-12-20T13:20:35.231Z,128.55
2022-12-20T13:23:08.379Z,123.82
2022-12-20T13:25:38.833Z,136.25
2022-12-20T13:28:23.995Z,115.95
2022-12-20T13:31:05.127Z,110.43
2022-12-20T13:33:44.393Z,110.22
2022-12-20T13:36:11.685Z,97.60
2022-12-20T13:38:55.513Z,101.22
2022-12-20T13:41:35.049Z,97.75
2022-12-20T13:44:15.041Z,87.93
2022-12-20T13:46:45.643Z,105.45
2022-12-20T13:49:27.904Z,94.88
2022-12-20T13:52:32.197Z,81.30
2022-12-20T13:55:23.593Z,90.75
2022-12-20T13:57:52.267Z,83.90
2022-12-20T14:00:25.667Z,96.88
2022-12-20T14:02:54.419Z,86.72
2022-12-20T14:05:31.327Z,92.75
2022-12-20T14:08:07.840Z,94.50
2022-12-20T14:10:35.659Z,96.90
2022-12-20T14:13:03.563Z,93.57
2022-12-20T14:15:38.599Z,93.95
2022-12-20T14:18:22.216Z,108.47
2022-12-20T14:20:58.096Z,105.10
2022-12-20T14:23:33.395Z,96.82
2022-12-20T14:26:02.406Z,102.60
2022-12-20T14:28:39.581Z,105.45
2022-12-20T14:31:22.498Z,101.57
2022-12-20T14:33:51.421Z,105.80
2022-12-20T14:36:19.721Z,108.35
2022-12-20T14:38:52.577Z,118.10
2022-12-20T14:41:35.272Z,117.93
2022-12-20T14:44:24.336Z,117.47
2022-12-20T14:46:57.446Z,113.63
2022-12-20T14:49:31.087Z,110.97
2022-12-20T14:52:34.495Z,110.88
2022-12-20T14:55:14.762Z,110.18
2022-12-20T14:57:45.948Z,106.45
2022-12-20T15:00:19.412Z,104.82
2022-12-20T15:03:00.757Z,111.60
2022-12-20T15:05:38.955Z,112.63
2022-12-20T15:08:18.829Z,88.07
2022-12-20T15:11:22.626Z,92.30
2022-12-20T15:13:53.194Z,100.65
2022-12-20T15:16:26.550Z,100.75
2022-12-20T15:18:59.761Z,98.40
2022-12-20T15:21:37.370Z,92.45
2022-12-20T15:24:10.668Z,85.75
2022-12-20T15:26:41.176Z,89.97
2022-12-20T15:29:15.938Z,86.28
2022-12-20T15:31:44.736Z,96.35
2022-12-20T15:34:36.468Z,87.47
2022-12-20T15:37:05.204Z,82.93
2022-12-20T15:39:34.126Z,93.15
2022-12-20T15:42:04.776Z,81.57
2022-12-20T15:44:33.504Z,77.88
2022-12-20T15:47:01.093Z,78.05
2022-12-20T15:49:31.417Z,88.57
2022-12-20T15:51:59.711Z,81.75
2022-12-20T15:54:35.794Z,85.30
2022-12-20T15:57:09.831Z,77.45
2022-12-20T16:02:28.994Z,86.03
2022-12-20T16:04:59.557Z,83.47
2022-12-20T16:07:27.368Z,85.88
2022-12-20T16:09:59.218Z,84.00
2022-12-20T16:12:38.967Z,82.50
2022-12-20T16:15:08.282Z,82.30
2022-12-20T16:17:35.753Z,89.78
2022-12-20T16:20:02.828Z,91.90
2022-12-20T16:22:30.657Z,91.07
2022-12-20T16:24:57.851Z,87.63
2022-12-20T16:27:25.204Z,83.68
2022-12-20T16:29:52.260Z,89.18
2022-12-20T16:32:21.964Z,84.65
2022-12-20T16:34:50.768Z,83.38
2022-12-20T16:37:18.649Z,80.25
2022-12-20T16:39:46.000Z,91.45
2022-12-20T16:42:18.651Z,81.68
2022-12-20T16:44:46.237Z,93.25
2022-12-20T16:47:14.922Z,84.00
2022-12-20T16:49:52.395Z,82.40
2022-12-20T16:52:24.913Z,85.53
2022-12-20T16:54:52.184Z,80.20
2022-12-20T16:57:21.560Z,79.35
2022-12-20T16:59:49.280Z,82.85
2022-12-20T17:02:35.098Z,84.07
2022-12-20T17:05:02.462Z,69.70
2022-12-20T17:07:29.915Z,77.10
2022-12-20T17:10:13.915Z,86.22
2022-12-20T17:12:41.359Z,88.50
2022-12-20T17:15:20.344Z,91.97
2022-12-20T17:17:51.291Z,82.10
2022-12-20T17:20:24.128Z,74.50
2022-12-20T17:25:40.204Z,75.70
2022-12-20T17:28:08.268Z,83.72
2022-12-20T17:30:35.480Z,79.00
2022-12-20T17:33:03.165Z,68.55
2022-12-20T17:35:33.100Z,71.45
2022-12-20T17:38:02.189Z,75.00
2022-12-20T17:40:29.466Z,81.00
2022-12-20T17:42:59.832Z,66.65
2022-12-20T17:45:32.845Z,62.90
2022-12-20T17:48:00.356Z,71.85
2022-12-20T17:50:27.871Z,73.97
2022-12-20T17:52:55.552Z,62.85
2022-12-20T17:55:28.384Z,78.20
2022-12-20T17:57:56.350Z,75.10
2022-12-20T18:00:39.220Z,65.70
2022-12-20T18:03:07.391Z,68.03
2022-12-20T18:05:34.575Z,64.22
2022-12-20T18:08:01.869Z,70.70
2022-12-20T18:10:29.443Z,62.13
2022-12-20T18:12:57.011Z,63.08
2022-12-20T18:15:24.133Z,66.78
2022-12-20T18:17:51.589Z,70.90
2022-12-20T18:20:18.725Z,68.45
2022-12-20T18:22:46.223Z,72.72
2022-12-20T18:25:14.105Z,73.03
2022-12-20T18:27:42.859Z,72.38
2022-12-20T18:30:12.286Z,71.57
2022-12-20T18:32:40.569Z,69.07
2022-12-20T18:35:11.135Z,70.43
2022-12-20T18:37:38.906Z,70.50
2022-12-20T18:40:07.481Z,66.55
2022-12-20T18:42:35.020Z,59.28
2022-12-20T18:45:02.238Z,69.00
2022-12-20T18:47:32.451Z,69.97
2022-12-20T18:49:59.670Z,69.22
2022-12-20T18:52:27.294Z,77.82
2022-12-20T18:54:58.502Z,76.00
2022-12-20T18:57:26.629Z,64.35
2022-12-20T18:59:56.827Z,65.20
2022-12-20T19:02:26.640Z,71.38
2022-12-20T19:04:54.831Z,60.80
2022-12-20T19:07:25.017Z,71.45
2022-12-20T19:09:53.864Z,63.83
2022-12-20T19:12:22.608Z,80.45
2022-12-20T19:14:49.962Z,74.05
2022-12-20T19:17:17.938Z,69.75
2022-12-20T19:19:47.744Z,78.88
2022-12-20T19:22:16.547Z,72.57
2022-12-20T19:24:45.228Z,62.13
2022-12-20T19:27:17.187Z,67.35
2022-12-20T19:29:44.270Z,66.57
2022-12-20T19:32:12.361Z,69.82
2022-12-20T19:34:42.423Z,58.30
2022-12-20T19:37:10.531Z,63.08
2022-12-20T19:39:38.252Z,64.43
2022-12-20T19:42:23.769Z,56.42
2022-12-20T19:44:53.976Z,61.78
2022-12-20T19:47:22.570Z,60.65
2022-12-20T19:49:50.152Z,58.92
2022-12-20T19:52:29.434Z,58.78
2022-12-20T19:54:59.502Z,58.08
2022-12-20T19:57:26.992Z,50.88
2022-12-20T19:59:56.099Z,57.30
2022-12-20T20:02:26.860Z,49.97
2022-12-20T20:04:54.469Z,57.03
2022-12-20T20:07:22.055Z,46.88
2022-12-20T20:09:49.126Z,58.13
2022-12-20T20:12:17.072Z,49.33
2022-12-20T20:14:44.166Z,54.85
2022-12-20T20:17:11.608Z,46.80
2022-12-20T20:19:42.817Z,56.42
2022-12-20T20:22:11.234Z,47.90
2022-12-20T20:24:38.579Z,50.45
2022-12-20T20:27:06.014Z,48.90
2022-12-20T20:29:33.138Z,51.65
2022-12-20T20:32:03.559Z,43.25
2022-12-20T20:34:30.983Z,52.03
2022-12-20T20:36:58.511Z,51.97
2022-12-20T20:39:25.836Z,45.67
2022-12-20T20:41:53.323Z,53.03
2022-12-20T20:44:20.404Z,47.67
2022-12-20T20:46:48.393Z,50.33
2022-12-20T20:49:15.899Z,49.90
2022-12-20T20:51:43.215Z,46.58
2022-12-20T20:54:10.568Z,46.38
2022-12-20T20:56:38.029Z,46.08
2022-12-20T20:59:08.286Z,49.78
2022-12-20T21:01:38.328Z,46.50
2022-12-20T21:04:05.737Z,51.78
2022-12-20T21:06:41.126Z,45.40
2022-12-20T21:09:09.022Z,50.63
2022-12-20T21:11:37.198Z,49.15
2022-12-20T21:14:04.531Z,48.30
2022-12-20T21:16:32.006Z,47.10
2022-12-20T21:18:59.442Z,44.15
2022-12-20T21:21:27.165Z,45.67
2022-12-20T21:23:55.745Z,46.83
2022-12-20T21:26:25.622Z,43.65
2022-12-20T21:29:00.169Z,43.40
2022-12-20T21:31:28.229Z,44.17
2022-12-20T21:33:56.728Z,41.75
2022-12-20T21:36:24.861Z,41.38
2022-12-20T21:38:56.072Z,47.72
2022-12-20T21:41:26.555Z,40.95
2022-12-20T21:43:58.150Z,42.10
2022-12-20T21:46:26.627Z,45.47
2022-12-20T21:48:54.629Z,41.05
2022-12-20T21:51:24.040Z,44.65
2022-12-20T21:53:54.149Z,39.60
2022-12-20T21:56:22.739Z,46.15
2022-12-20T21:58:50.908Z,40.25
2022-12-20T22:01:22.006Z,42.90
2022-12-20T22:03:54.283Z,39.70
2022-12-20T22:06:21.896Z,43.38
2022-12-20T22:08:49.300Z,46.42
2022-12-20T22:11:18.516Z,40.53
2022-12-20T22:13:46.479Z,49.78
2022-12-20T22:16:21.423Z,48.60
2022-12-20T22:18:51.025Z,48.20
2022-12-20T22:21:20.681Z,53.78
2022-12-20T22:23:48.090Z,47.35
2022-12-20T22:26:20.640Z,55.25
2022-12-20T22:28:53.565Z,50.63
2022-12-20T22:31:21.616Z,55.88
2022-12-20T22:33:49.513Z,58.90
2022-12-20T22:36:17.361Z,56.47
2022-12-20T22:38:45.186Z,58.70
2022-12-20T22:41:14.119Z,55.75
2022-12-20T22:43:44.570Z,54.67
2022-12-20T22:48:58.779Z,52.63
2022-12-20T22:51:31.194Z,56.10
2022-12-20T22:53:59.462Z,54.70
2022-12-20T22:56:27.225Z,58.10
2022-12-20T22:58:54.330Z,50.95
2022-12-20T23:01:22.197Z,47.13
2022-12-20T23:03:49.572Z,49.53
2022-12-20T23:06:20.074Z,47.97
2022-12-20T23:08:47.819Z,48.40
2022-12-20T23:11:36.642Z,53.10
2022-12-20T23:14:24.613Z,40.35
2022-12-20T23:16:52.066Z,50.17
2022-12-20T23:19:19.294Z,50.00
2022-12-20T23:22:05.088Z,47.55
2022-12-20T23:24:32.188Z,45.15
2022-12-20T23:26:59.505Z,36.65
2022-12-20T23:29:26.521Z,44.80
2022-12-20T23:31:54.184Z,43.03
2022-12-20T23:34:21.242Z,45.38
2022-12-20T23:36:48.814Z,44.40
2022-12-20T23:39:15.868Z,44.45
2022-12-20T23:41:43.151Z,43.08
2022-12-20T23:44:10.135Z,38.97
2022-12-20T23:46:38.346Z,42.10
2022-12-20T23:49:06.070Z,48.13
2022-12-20T23:51:34.785Z,42.10
2022-12-20T23:54:01.782Z,44.75
2022-12-20T23:56:30.102Z,42.03
2022-12-20T23:58:57.744Z,43.72
